createdAt,value
2018-09-26T00:00:08.753Z,99.90
2018-09-26T00:02:44.267Z,99.90
2018-09-26T00:05:13.128Z,99.90
2018-09-26T00:07:41.936Z,99.90
2018-09-26T00:10:10.767Z,99.90
2018-09-26T00:12:39.566Z,99.90
2018-09-26T00:15:08.559Z,99.90
2018-09-26T00:17:37.466Z,99.90
2018-09-26T00:20:06.679Z,99.90
2018-09-26T00:22:35.725Z,99.90
2018-09-26T00:25:04.696Z,99.90
2018-09-26T00:27:33.517Z,99.90
2018-09-26T00:30:02.353Z,99.90
2018-09-26T00:32:31.249Z,99.90
2018-09-26T00:35:00.114Z,99.90
2018-09-26T00:37:28.987Z,99.90
2018-09-26T00:39:57.915Z,99.90
2018-09-26T00:42:26.686Z,99.90
2018-09-26T00:44:55.436Z,99.90
2018-09-26T00:47:24.378Z,99.90
2018-09-26T00:49:53.134Z,99.90
2018-09-26T00:52:21.885Z,99.90
2018-09-26T00:54:50.693Z,99.90
2018-09-26T00:57:19.540Z,99.90
2018-09-26T00:59:48.372Z,99.90
2018-09-26T01:02:17.014Z,99.90
2018-09-26T01:04:45.709Z,99.90
2018-09-26T01:07:14.549Z,99.90
2018-09-26T01:09:43.582Z,99.90
2018-09-26T01:12:12.206Z,99.90
2018-09-26T01:14:40.886Z,99.90
2018-09-26T01:17:09.583Z,99.90
2018-09-26T01:19:38.419Z,99.90
2018-09-26T01:22:07.149Z,99.90
2018-09-26T01:24:35.785Z,99.90
2018-09-26T01:27:11.177Z,99.90
2018-09-26T01:29:46.213Z,99.90
2018-09-26T01:32:15.103Z,99.90
2018-09-26T01:34:43.999Z,99.90
2018-09-26T01:37:12.649Z,99.90
2018-09-26T01:39:41.708Z,99.90
2018-09-26T01:42:10.407Z,99.90
2018-09-26T01:44:39.044Z,99.90
2018-09-26T01:47:07.689Z,99.90
2018-09-26T01:49:36.333Z,99.90
2018-09-26T01:52:05.234Z,99.90
2018-09-26T01:54:33.914Z,99.90
2018-09-26T01:57:02.535Z,99.90
2018-09-26T01:59:31.237Z,99.90
2018-09-26T02:01:59.875Z,99.90
2018-09-26T02:04:28.588Z,99.90
2018-09-26T02:06:57.238Z,99.90
2018-09-26T02:09:26.047Z,99.90
2018-09-26T02:11:54.699Z,99.90
2018-09-26T02:14:24.337Z,99.90
2018-09-26T02:16:53.072Z,99.90
2018-09-26T02:19:21.708Z,99.90
2018-09-26T02:21:50.409Z,99.90
2018-09-26T02:24:19.362Z,99.90
2018-09-26T02:26:48.149Z,99.90
2018-09-26T02:29:16.823Z,99.90
2018-09-26T02:31:45.467Z,99.90
2018-09-26T02:34:14.158Z,99.90
2018-09-26T02:36:42.782Z,99.90
2018-09-26T02:39:11.457Z,99.90
2018-09-26T02:41:40.070Z,99.90
2018-09-26T02:44:08.730Z,99.90
2018-09-26T02:46:37.352Z,99.90
2018-09-26T02:49:06.754Z,99.90
2018-09-26T02:51:36.902Z,99.90
2018-09-26T02:54:06.218Z,99.90
2018-09-26T02:56:34.829Z,99.90
2018-09-26T02:59:03.473Z,99.90
2018-09-26T03:01:32.277Z,99.90
2018-09-26T03:04:01.141Z,99.90
2018-09-26T03:06:29.786Z,99.90
2018-09-26T03:08:58.382Z,99.90
2018-09-26T03:11:27.033Z,99.90
2018-09-26T03:13:55.896Z,99.90
2018-09-26T03:16:24.556Z,99.90
2018-09-26T03:18:53.238Z,99.90
2018-09-26T03:21:21.949Z,99.90
2018-09-26T03:23:50.597Z,99.90
2018-09-26T03:26:19.983Z,99.90
2018-09-26T03:28:48.648Z,99.90
2018-09-26T03:31:17.289Z,99.90
2018-09-26T03:33:45.967Z,99.90
2018-09-26T03:36:14.711Z,99.90
2018-09-26T03:38:43.318Z,99.90
2018-09-26T03:41:11.960Z,99.90
2018-09-26T03:43:40.578Z,99.90
2018-09-26T03:46:09.409Z,99.90
2018-09-26T03:48:38.082Z,99.90
2018-09-26T03:51:07.030Z,99.90
2018-09-26T03:53:35.666Z,99.90
2018-09-26T03:56:04.333Z,99.90
2018-09-26T03:58:33.056Z,99.90
2018-09-26T04:01:01.778Z,99.90
2018-09-26T04:03:30.588Z,99.90
2018-09-26T04:05:59.211Z,99.90
2018-09-26T04:08:28.667Z,99.90
2018-09-26T04:10:57.576Z,99.90
2018-09-26T04:13:26.333Z,99.90
2018-09-26T04:15:55.779Z,99.90
2018-09-26T04:18:26.360Z,99.90
2018-09-26T04:20:55.863Z,99.90
2018-09-26T04:23:24.670Z,99.90
2018-09-26T04:25:53.467Z,99.90
2018-09-26T04:28:22.132Z,99.90
2018-09-26T04:30:50.902Z,99.90
2018-09-26T04:33:19.956Z,99.90
2018-09-26T04:35:48.475Z,99.90
2018-09-26T04:38:17.352Z,99.90
2018-09-26T04:40:46.078Z,99.90
2018-09-26T04:43:14.848Z,99.90
2018-09-26T04:45:43.569Z,99.90
2018-09-26T04:48:12.370Z,99.90
2018-09-26T04:50:41.147Z,99.90
2018-09-26T04:53:09.908Z,99.90
2018-09-26T04:55:38.638Z,99.90
2018-09-26T04:58:08.153Z,99.90
2018-09-26T05:00:36.949Z,99.90
2018-09-26T05:03:06.035Z,99.90
2018-09-26T05:05:34.702Z,99.90
2018-09-26T05:08:03.512Z,99.90
2018-09-26T05:10:32.315Z,99.90
2018-09-26T05:13:01.923Z,99.90
2018-09-26T05:15:30.639Z,99.90
2018-09-26T05:17:59.473Z,99.90
2018-09-26T05:20:28.160Z,99.90
2018-09-26T05:22:56.826Z,99.90
2018-09-26T05:25:25.562Z,99.90
2018-09-26T05:27:54.264Z,99.90
2018-09-26T05:30:23.045Z,99.90
2018-09-26T05:32:51.814Z,99.90
2018-09-26T05:35:20.558Z,99.90
2018-09-26T05:37:49.366Z,99.90
2018-09-26T05:40:18.179Z,99.90
2018-09-26T05:42:47.149Z,99.90
2018-09-26T05:45:15.898Z,99.90
2018-09-26T05:47:44.604Z,99.90
2018-09-26T05:50:13.396Z,99.90
2018-09-26T05:52:42.133Z,99.90
2018-09-26T05:55:10.897Z,99.90
2018-09-26T05:57:39.708Z,99.90
2018-09-26T06:00:08.751Z,99.90
2018-09-26T06:02:37.713Z,99.90
2018-09-26T06:05:06.522Z,99.90
2018-09-26T06:07:35.224Z,99.90
2018-09-26T06:10:03.928Z,99.90
2018-09-26T06:12:32.799Z,99.90
2018-09-26T06:15:01.558Z,99.90
2018-09-26T06:17:30.550Z,99.90
2018-09-26T06:19:59.584Z,99.90
2018-09-26T06:22:28.275Z,99.90
2018-09-26T06:24:56.991Z,99.90
2018-09-26T06:27:25.695Z,99.90
2018-09-26T06:29:54.597Z,99.90
2018-09-26T06:32:23.364Z,99.90
2018-09-26T06:34:52.388Z,99.90
2018-09-26T06:37:21.424Z,99.90
2018-09-26T06:39:50.369Z,99.90
2018-09-26T06:42:19.433Z,99.90
2018-09-26T06:44:48.693Z,99.90
2018-09-26T06:47:17.673Z,99.90
2018-09-26T06:49:46.485Z,99.90
2018-09-26T06:52:15.306Z,99.90
2018-09-26T06:54:44.193Z,99.90
2018-09-26T06:57:13.229Z,99.90
2018-09-26T06:59:42.259Z,99.70
2018-09-26T07:02:11.908Z,99.70
2018-09-26T07:04:41.023Z,99.80
2018-09-26T07:07:09.914Z,99.60
2018-09-26T07:09:38.797Z,99.10
2018-09-26T07:12:07.811Z,99.30
2018-09-26T07:14:36.796Z,99.30
2018-09-26T07:17:06.025Z,98.90
2018-09-26T07:19:35.007Z,98.90
2018-09-26T07:22:03.971Z,98.80
2018-09-26T07:24:33.124Z,98.50
2018-09-26T07:27:03.305Z,98.20
2018-09-26T07:29:32.400Z,97.60
2018-09-26T07:32:01.415Z,97.20
2018-09-26T07:34:35.420Z,96.60
2018-09-26T07:37:04.897Z,96.50
2018-09-26T07:39:34.247Z,96.70
2018-09-26T07:42:03.391Z,96.40
2018-09-26T07:44:32.643Z,96.30
2018-09-26T07:47:01.983Z,96.10
2018-09-26T07:49:31.216Z,96.30
2018-09-26T07:52:00.240Z,96.40
2018-09-26T07:54:29.179Z,96.00
2018-09-26T07:56:58.197Z,96.10
2018-09-26T07:59:27.502Z,95.90
2018-09-26T08:01:56.793Z,95.60
2018-09-26T08:04:26.160Z,95.30
2018-09-26T08:06:55.540Z,94.60
2018-09-26T08:09:24.558Z,93.70
2018-09-26T08:11:53.726Z,93.70
2018-09-26T08:14:25.525Z,93.60
2018-09-26T08:16:54.678Z,93.40
2018-09-26T08:19:23.905Z,92.70
2018-09-26T08:21:53.064Z,92.80
2018-09-26T08:24:22.116Z,92.60
2018-09-26T08:26:50.957Z,91.60
2018-09-26T08:29:19.883Z,91.80
2018-09-26T08:31:48.754Z,91.70
2018-09-26T08:34:17.760Z,90.40
2018-09-26T08:36:46.685Z,90.10
2018-09-26T08:39:15.764Z,88.70
2018-09-26T08:41:45.570Z,88.00
2018-09-26T08:44:14.589Z,87.20
2018-09-26T08:46:43.770Z,85.40
2018-09-26T08:49:13.722Z,83.60
2018-09-26T08:51:42.630Z,83.00
2018-09-26T08:54:11.881Z,82.00
2018-09-26T08:56:40.769Z,81.20
2018-09-26T08:59:09.720Z,79.60
2018-09-26T09:01:45.052Z,78.60
2018-09-26T09:04:15.709Z,78.70
2018-09-26T09:06:45.709Z,78.40
2018-09-26T09:09:14.475Z,77.80
2018-09-26T09:11:43.351Z,75.40
2018-09-26T09:14:12.394Z,73.70
2018-09-26T09:16:41.608Z,73.80
2018-09-26T09:19:11.907Z,74.10
2018-09-26T09:21:40.752Z,73.40
2018-09-26T09:24:09.761Z,72.70
2018-09-26T09:26:38.652Z,71.90
2018-09-26T09:29:07.872Z,71.60
2018-09-26T09:31:36.742Z,71.40
2018-09-26T09:34:05.840Z,68.70
2018-09-26T09:36:34.812Z,66.70
2018-09-26T09:39:04.187Z,65.50
2018-09-26T09:41:32.924Z,63.60
2018-09-26T09:44:08.632Z,62.80
2018-09-26T09:46:40.681Z,60.20
2018-09-26T09:49:16.109Z,59.30
2018-09-26T09:51:45.010Z,58.70
2018-09-26T09:54:13.939Z,59.00
2018-09-26T09:56:42.905Z,59.40
2018-09-26T09:59:11.976Z,59.10
2018-09-26T10:01:40.943Z,57.20
2018-09-26T10:04:09.959Z,56.70
2018-09-26T10:06:39.451Z,56.30
2018-09-26T10:09:08.479Z,55.40
2018-09-26T10:11:37.485Z,55.30
2018-09-26T10:14:06.724Z,54.80
2018-09-26T10:16:35.592Z,53.90
2018-09-26T10:19:04.466Z,52.80
2018-09-26T10:21:33.635Z,51.90
2018-09-26T10:24:02.943Z,52.10
2018-09-26T10:26:32.125Z,52.00
2018-09-26T10:29:01.053Z,51.50
2018-09-26T10:31:30.130Z,50.60
2018-09-26T10:33:59.052Z,49.90
2018-09-26T10:36:27.932Z,50.10
2018-09-26T10:38:56.839Z,49.00
2018-09-26T10:41:26.073Z,48.40
2018-09-26T10:43:55.109Z,49.00
2018-09-26T10:46:24.175Z,48.70
2018-09-26T10:48:53.155Z,48.90
2018-09-26T10:51:22.210Z,49.10
2018-09-26T10:53:51.223Z,48.90
2018-09-26T10:56:20.124Z,49.60
2018-09-26T10:58:48.920Z,50.20
2018-09-26T11:01:17.835Z,50.10
2018-09-26T11:03:47.018Z,50.10
2018-09-26T11:06:15.992Z,50.40
2018-09-26T11:08:45.107Z,49.30
2018-09-26T11:11:14.057Z,48.10
2018-09-26T11:13:43.121Z,47.30
2018-09-26T11:16:12.279Z,46.80
2018-09-26T11:18:41.448Z,44.70
2018-09-26T11:21:10.495Z,43.70
2018-09-26T11:23:39.774Z,42.00
2018-09-26T11:26:08.917Z,41.70
2018-09-26T11:28:37.745Z,40.90
2018-09-26T11:31:06.951Z,40.50
2018-09-26T11:33:36.100Z,40.10
2018-09-26T11:36:04.991Z,40.10
2018-09-26T11:38:34.081Z,40.50
2018-09-26T11:41:02.980Z,39.80
2018-09-26T11:43:32.407Z,40.20
2018-09-26T11:46:01.336Z,39.30
2018-09-26T11:48:30.368Z,38.80
2018-09-26T11:50:59.364Z,38.00
2018-09-26T11:53:28.320Z,38.20
2018-09-26T11:55:57.537Z,37.60
2018-09-26T11:58:26.618Z,37.50
2018-09-26T12:00:55.491Z,37.30
2018-09-26T12:03:24.523Z,37.10
2018-09-26T12:05:53.603Z,37.80
2018-09-26T12:08:22.766Z,37.30
2018-09-26T12:10:51.680Z,38.00
2018-09-26T12:13:20.704Z,37.00
2018-09-26T12:15:49.987Z,35.60
2018-09-26T12:18:19.066Z,35.40
2018-09-26T12:20:47.908Z,35.60
2018-09-26T12:23:16.961Z,33.90
2018-09-26T12:25:45.835Z,32.80
2018-09-26T12:28:14.970Z,32.10
2018-09-26T12:30:44.801Z,31.90
2018-09-26T12:33:13.997Z,30.50
2018-09-26T12:35:42.838Z,30.00
2018-09-26T12:38:11.950Z,30.10
2018-09-26T12:40:40.875Z,29.40
2018-09-26T12:43:09.950Z,28.90
2018-09-26T12:45:38.865Z,28.60
2018-09-26T12:48:08.059Z,28.00
2018-09-26T12:50:36.983Z,27.10
2018-09-26T12:53:05.975Z,27.10
2018-09-26T12:55:35.659Z,26.30
2018-09-26T12:58:04.957Z,25.90
2018-09-26T13:00:33.937Z,26.50
2018-09-26T13:03:03.251Z,26.20
2018-09-26T13:05:32.206Z,26.60
2018-09-26T13:08:01.367Z,25.70
2018-09-26T13:10:30.553Z,26.00
2018-09-26T13:12:59.554Z,25.80
2018-09-26T13:15:28.924Z,25.70
2018-09-26T13:17:57.904Z,25.30
2018-09-26T13:20:27.299Z,25.20
2018-09-26T13:22:56.488Z,25.30
2018-09-26T13:25:25.773Z,25.00
2018-09-26T13:27:54.683Z,25.30
2018-09-26T13:30:23.753Z,24.90
2018-09-26T13:32:52.775Z,24.70
2018-09-26T13:35:21.720Z,24.50
2018-09-26T13:37:50.697Z,24.30
2018-09-26T13:40:19.881Z,24.30
2018-09-26T13:42:48.774Z,24.50
2018-09-26T13:45:17.729Z,24.30
2018-09-26T13:47:46.835Z,23.90
2018-09-26T13:50:15.825Z,23.60
2018-09-26T13:52:45.162Z,24.10
2018-09-26T13:55:14.198Z,23.60
2018-09-26T13:57:43.255Z,23.80
2018-09-26T14:00:15.181Z,23.80
2018-09-26T14:02:43.979Z,23.50
2018-09-26T14:05:12.861Z,23.40
2018-09-26T14:07:41.843Z,23.10
2018-09-26T14:10:11.096Z,23.70
2018-09-26T14:12:40.088Z,23.60
2018-09-26T14:15:09.239Z,23.50
2018-09-26T14:17:38.252Z,23.40
2018-09-26T14:20:10.967Z,23.50
2018-09-26T14:22:39.950Z,23.80
2018-09-26T14:25:09.317Z,23.40
2018-09-26T14:27:38.548Z,23.10
2018-09-26T14:30:07.735Z,22.90
2018-09-26T14:32:36.796Z,23.10
2018-09-26T14:35:05.876Z,22.80
2018-09-26T14:37:34.714Z,22.70
2018-09-26T14:40:03.759Z,22.70
2018-09-26T14:42:32.663Z,22.90
2018-09-26T14:45:01.808Z,22.90
2018-09-26T14:47:30.839Z,23.60
2018-09-26T14:49:59.867Z,23.90
2018-09-26T14:52:28.657Z,24.50
2018-09-26T14:54:57.598Z,24.80
2018-09-26T14:57:26.371Z,25.40
2018-09-26T14:59:55.398Z,26.00
2018-09-26T15:02:24.650Z,26.50
2018-09-26T15:04:53.462Z,26.60
2018-09-26T15:07:22.677Z,26.60
2018-09-26T15:09:51.682Z,26.90
2018-09-26T15:12:20.742Z,27.30
2018-09-26T15:14:49.520Z,27.10
2018-09-26T15:17:18.431Z,27.00
2018-09-26T15:19:47.433Z,27.50
2018-09-26T15:22:16.602Z,27.70
2018-09-26T15:24:45.748Z,28.00
2018-09-26T15:27:14.824Z,28.10
2018-09-26T15:29:44.716Z,28.30
2018-09-26T15:32:13.779Z,28.50
2018-09-26T15:34:42.828Z,29.00
2018-09-26T15:37:11.994Z,28.90
2018-09-26T15:39:41.388Z,28.90
2018-09-26T15:42:10.807Z,29.10
2018-09-26T15:44:40.299Z,28.50
2018-09-26T15:47:09.834Z,27.90
2018-09-26T15:49:39.356Z,26.80
2018-09-26T15:52:09.144Z,26.70
2018-09-26T15:54:38.624Z,26.80
2018-09-26T15:57:08.855Z,27.50
2018-09-26T15:59:37.929Z,28.20
2018-09-26T16:02:07.464Z,28.60
2018-09-26T16:04:36.863Z,28.80
2018-09-26T16:07:06.402Z,29.20
2018-09-26T16:09:35.516Z,29.50
2018-09-26T16:12:04.716Z,30.10
2018-09-26T16:14:33.759Z,30.10
2018-09-26T16:17:03.098Z,30.80
2018-09-26T16:19:32.610Z,31.80
2018-09-26T16:22:02.210Z,32.60
2018-09-26T16:24:31.703Z,32.30
2018-09-26T16:27:01.211Z,32.20
2018-09-26T16:29:30.685Z,33.20
2018-09-26T16:32:00.246Z,33.20
2018-09-26T16:34:29.589Z,33.80
2018-09-26T16:36:58.907Z,33.90
2018-09-26T16:39:29.353Z,34.30
2018-09-26T16:42:01.635Z,34.50
2018-09-26T16:44:30.948Z,34.60
2018-09-26T16:47:00.296Z,35.20
2018-09-26T16:49:30.414Z,35.50
2018-09-26T16:51:59.918Z,35.90
2018-09-26T16:54:29.279Z,36.20
2018-09-26T16:56:58.686Z,36.60
2018-09-26T16:59:28.085Z,37.40
2018-09-26T17:01:57.375Z,37.00
2018-09-26T17:04:27.043Z,37.20
2018-09-26T17:06:56.541Z,37.20
2018-09-26T17:09:26.160Z,37.30
2018-09-26T17:11:55.614Z,37.80
2018-09-26T17:14:25.184Z,38.20
2018-09-26T17:16:54.347Z,38.80
2018-09-26T17:19:23.734Z,39.40
2018-09-26T17:21:53.802Z,39.90
2018-09-26T17:24:23.185Z,41.30
2018-09-26T17:26:52.520Z,42.00
2018-09-26T17:29:21.923Z,42.50
2018-09-26T17:31:51.075Z,42.80
2018-09-26T17:34:20.467Z,43.10
2018-09-26T17:36:50.359Z,43.70
2018-09-26T17:39:19.617Z,44.40
2018-09-26T17:41:48.900Z,45.30
2018-09-26T17:44:18.175Z,45.50
2018-09-26T17:46:47.415Z,46.20
2018-09-26T17:49:16.533Z,46.30
2018-09-26T17:51:46.378Z,47.50
2018-09-26T17:54:15.595Z,47.90
2018-09-26T17:56:44.747Z,48.40
2018-09-26T17:59:13.945Z,50.00
2018-09-26T18:01:43.179Z,49.60
2018-09-26T18:04:12.759Z,51.00
2018-09-26T18:06:42.033Z,52.20
2018-09-26T18:09:12.177Z,54.30
2018-09-26T18:11:41.431Z,56.90
2018-09-26T18:14:10.799Z,58.20
2018-09-26T18:16:40.378Z,59.30
2018-09-26T18:19:09.887Z,59.90
2018-09-26T18:21:39.268Z,61.10
2018-09-26T18:24:08.611Z,62.60
2018-09-26T18:26:37.934Z,63.70
2018-09-26T18:29:07.201Z,64.30
2018-09-26T18:31:36.524Z,65.00
2018-09-26T18:34:05.907Z,66.00
2018-09-26T18:36:35.342Z,67.00
2018-09-26T18:39:06.805Z,67.80
2018-09-26T18:41:35.979Z,67.90
2018-09-26T18:44:05.443Z,69.20
2018-09-26T18:46:34.790Z,68.80
2018-09-26T18:49:04.223Z,70.20
2018-09-26T18:51:33.658Z,72.30
2018-09-26T18:54:02.944Z,73.50
2018-09-26T18:56:32.407Z,75.40
2018-09-26T18:59:01.909Z,77.20
2018-09-26T19:01:31.271Z,76.90
2018-09-26T19:04:00.490Z,75.80
2018-09-26T19:06:29.787Z,77.40
2018-09-26T19:08:59.176Z,78.20
2018-09-26T19:11:28.447Z,78.40
2018-09-26T19:13:57.788Z,79.10
2018-09-26T19:16:27.071Z,79.70
2018-09-26T19:18:56.403Z,79.60
2018-09-26T19:21:25.825Z,79.90
2018-09-26T19:23:55.156Z,80.30
2018-09-26T19:26:24.412Z,81.00
2018-09-26T19:28:54.390Z,81.90
2018-09-26T19:31:23.860Z,82.70
2018-09-26T19:33:53.088Z,83.00
2018-09-26T19:36:22.511Z,83.70
2018-09-26T19:38:51.715Z,83.60
2018-09-26T19:41:20.928Z,84.60
2018-09-26T19:43:49.975Z,84.90
2018-09-26T19:46:19.334Z,85.60
2018-09-26T19:48:48.290Z,86.00
2018-09-26T19:51:17.231Z,86.00
2018-09-26T19:53:46.028Z,86.90
2018-09-26T19:56:15.068Z,87.50
2018-09-26T19:58:43.746Z,87.80
2018-09-26T20:01:12.700Z,88.70
2018-09-26T20:03:41.640Z,89.10
2018-09-26T20:06:10.630Z,89.80
2018-09-26T20:08:39.440Z,90.20
2018-09-26T20:11:09.214Z,90.50
2018-09-26T20:13:37.999Z,90.80
2018-09-26T20:16:06.787Z,91.50
2018-09-26T20:18:35.577Z,91.70
2018-09-26T20:21:04.382Z,91.80
2018-09-26T20:23:33.283Z,91.90
2018-09-26T20:26:01.970Z,91.90
2018-09-26T20:28:30.758Z,92.10
2018-09-26T20:30:59.578Z,92.10
2018-09-26T20:33:28.370Z,92.30
2018-09-26T20:35:57.216Z,92.40
2018-09-26T20:38:26.010Z,92.60
2018-09-26T20:40:54.919Z,92.80
2018-09-26T20:43:23.721Z,93.10
2018-09-26T20:45:52.653Z,93.40
2018-09-26T20:48:21.453Z,93.50
2018-09-26T20:50:50.380Z,93.50
2018-09-26T20:53:19.174Z,93.70
2018-09-26T20:55:48.210Z,93.70
2018-09-26T20:58:16.991Z,94.00
2018-09-26T21:00:45.792Z,94.20
2018-09-26T21:03:14.546Z,94.20
2018-09-26T21:05:43.789Z,94.50
2018-09-26T21:08:12.522Z,94.60
2018-09-26T21:10:41.374Z,94.60
2018-09-26T21:13:10.293Z,94.90
2018-09-26T21:15:39.429Z,94.90
2018-09-26T21:18:08.565Z,95.10
2018-09-26T21:20:37.428Z,95.10
2018-09-26T21:23:06.349Z,95.30
2018-09-26T21:25:35.092Z,95.30
2018-09-26T21:28:03.912Z,95.30
2018-09-26T21:30:32.620Z,95.20
2018-09-26T21:33:01.367Z,95.40
2018-09-26T21:35:30.400Z,95.60
2018-09-26T21:37:59.148Z,95.70
2018-09-26T21:40:28.087Z,95.90
2018-09-26T21:42:57.071Z,96.10
2018-09-26T21:45:25.905Z,96.30
2018-09-26T21:47:54.669Z,96.50
2018-09-26T21:50:23.348Z,96.80
2018-09-26T21:52:52.247Z,96.90
2018-09-26T21:55:20.958Z,97.10
2018-09-26T21:57:49.786Z,97.20
2018-09-26T22:00:18.647Z,97.50
2018-09-26T22:02:47.378Z,97.40
2018-09-26T22:05:16.215Z,97.50
2018-09-26T22:07:44.983Z,97.70
2018-09-26T22:10:14.025Z,97.60
2018-09-26T22:12:42.935Z,97.60
2018-09-26T22:15:27.154Z,97.50
2018-09-26T22:17:55.989Z,97.50
2018-09-26T22:20:24.827Z,97.50
2018-09-26T22:22:53.844Z,97.40
2018-09-26T22:25:22.552Z,97.30
2018-09-26T22:27:51.288Z,97.30
2018-09-26T22:30:20.010Z,97.40
2018-09-26T22:32:48.823Z,97.50
2018-09-26T22:35:17.604Z,97.60
2018-09-26T22:37:46.413Z,97.50
2018-09-26T22:40:15.172Z,97.50
2018-09-26T22:42:44.025Z,97.70
2018-09-26T22:45:12.975Z,97.90
2018-09-26T22:47:41.868Z,98.00
2018-09-26T22:50:10.679Z,98.10
2018-09-26T22:52:39.460Z,98.10
2018-09-26T22:55:08.285Z,98.30
2018-09-26T22:57:37.103Z,98.40
2018-09-26T23:00:05.924Z,98.50
2018-09-26T23:02:34.895Z,98.60
2018-09-26T23:05:03.669Z,98.70
2018-09-26T23:07:33.224Z,98.70
2018-09-26T23:10:02.965Z,98.80
2018-09-26T23:12:38.278Z,98.80
2018-09-26T23:15:07.128Z,99.00
2018-09-26T23:17:36.178Z,99.10
2018-09-26T23:20:05.136Z,99.20
2018-09-26T23:22:33.999Z,99.10
2018-09-26T23:25:02.748Z,99.10
2018-09-26T23:27:31.592Z,99.30
2018-09-26T23:30:00.303Z,99.40
2018-09-26T23:32:29.352Z,99.50
2018-09-26T23:34:58.099Z,99.00
2018-09-26T23:37:27.077Z,99.00
2018-09-26T23:39:56.070Z,99.00
2018-09-26T23:42:25.599Z,99.00
2018-09-26T23:44:54.494Z,99.20
2018-09-26T23:47:23.401Z,99.20
2018-09-26T23:49:52.243Z,99.10
2018-09-26T23:52:20.986Z,99.10
2018-09-26T23:54:49.799Z,98.90
2018-09-26T23:57:18.576Z,98.70
2018-09-26T23:59:47.400Z,98.50
